Sainte-Julienne, Canada
Current Conditions -  °F | °C
As of 6:00 PM on Saturday 25 Oct 2014 (Local Time) from CYMX Reporting Station
Rain Showers Rain Showers  
Wind Chill: 50°   Ceiling: 2000
Heat Index: 50°   Visibility: 3mi
Dew Point: 50°   Wind: 3mph
Humidity: 100%   Direction: NA
Pressure: 29.46"   Gusts: NA
Location:  45.97°N, 73.72°W
Report Text: CYMX 252200Z VRB03KT 3SM -SHRA BR FEW009 OVC020 10/10 A2946 RMK SF1SC7 SLP977 DENSITY ALT 300FT
Loading
Personal Weather Stations






























Interactive Weather Map
Tropical Storm Tracking
New forecast layout! Learn more

10-Day Weather Forecast

Advertisements
Track Severe Weather on mobile